Ringle, Wisconsin
Current Conditions -  °F | °C
As of 7:54 PM on Sunday 21 Dec 2014 (Local Time) from KAUW Reporting Station
Light Snow Light Snow  
Wind Chill: 23°   Ceiling: 500
Heat Index: 33°   Visibility: 2mi
Dew Point: 32°   Wind: 14mph
Humidity: 96%   Direction: 160°SSE
Pressure: 29.87"   Gusts: NA
Location:  44.89°N, 89.43°W
Report Text: KAUW 220154Z AUTO 16012KT 2SM -SN BR OVC005 01/00 A2987 RMK AO2 UPB45E48SNB48 SLP132 P0000 T00060000
Loading
Personal Weather Stations






























Interactive Weather Map New forecast layout! Learn more

10-Day Weather Forecast

Advertisements
Track Severe Weather on mobile